createdAt,value
2023-12-16T00:01:01.230Z,75.08
2023-12-16T00:03:37.740Z,75.09
2023-12-16T00:06:06.237Z,75.32
2023-12-16T00:08:34.789Z,75.44
2023-12-16T00:11:03.778Z,75.66
2023-12-16T00:13:32.642Z,75.81
2023-12-16T00:16:00.954Z,75.96
2023-12-16T00:18:29.460Z,75.80
2023-12-16T00:20:57.683Z,75.52
2023-12-16T00:23:25.842Z,75.67
2023-12-16T00:25:54.054Z,75.45
2023-12-16T00:28:22.294Z,75.45
2023-12-16T00:30:50.740Z,75.39
2023-12-16T00:33:19.141Z,75.23
2023-12-16T00:35:47.279Z,75.51
2023-12-16T00:38:15.587Z,75.86
2023-12-16T00:40:43.850Z,75.88
2023-12-16T00:43:12.065Z,76.09
2023-12-16T00:45:40.317Z,75.97
2023-12-16T00:48:08.791Z,75.72
2023-12-16T00:50:39.638Z,75.84
2023-12-16T00:53:08.015Z,75.42
2023-12-16T00:55:36.173Z,75.45
2023-12-16T00:58:04.580Z,75.71
2023-12-16T01:00:32.769Z,75.93
2023-12-16T01:03:01.019Z,76.10
2023-12-16T01:05:29.307Z,76.42
2023-12-16T01:07:57.671Z,76.94
2023-12-16T01:10:26.205Z,76.99
2023-12-16T01:12:54.531Z,76.96
2023-12-16T01:15:23.105Z,77.01
2023-12-16T01:17:51.472Z,77.32
2023-12-16T01:20:19.781Z,77.17
2023-12-16T01:22:48.073Z,76.93
2023-12-16T01:25:16.385Z,76.47
2023-12-16T01:27:44.684Z,76.31
2023-12-16T01:30:13.137Z,76.66
2023-12-16T01:32:41.669Z,76.67
2023-12-16T01:35:10.060Z,76.85
2023-12-16T01:37:38.508Z,77.06
2023-12-16T01:40:07.966Z,77.05
2023-12-16T01:42:36.131Z,77.00
2023-12-16T01:45:05.467Z,77.23
2023-12-16T01:47:33.885Z,76.88
2023-12-16T01:50:02.624Z,76.96
2023-12-16T01:52:32.101Z,77.33
2023-12-16T01:55:00.462Z,77.13
2023-12-16T01:57:28.927Z,77.04
2023-12-16T01:59:57.085Z,77.49
2023-12-16T02:02:28.107Z,77.91
2023-12-16T02:04:56.440Z,77.73
2023-12-16T02:07:25.447Z,77.85
2023-12-16T02:09:53.778Z,77.89
2023-12-16T02:12:21.981Z,77.61
2023-12-16T02:14:50.280Z,77.51
2023-12-16T02:17:18.729Z,77.58
2023-12-16T02:19:49.083Z,77.33
2023-12-16T02:22:17.457Z,77.14
2023-12-16T02:24:46.634Z,77.19
2023-12-16T02:27:15.393Z,77.18
2023-12-16T02:29:44.174Z,77.04
2023-12-16T02:32:12.408Z,77.33
2023-12-16T02:34:40.617Z,77.66
2023-12-16T02:37:10.093Z,77.91
2023-12-16T02:39:38.311Z,78.09
2023-12-16T02:42:06.475Z,78.01
2023-12-16T02:44:34.955Z,78.06
2023-12-16T02:47:03.259Z,78.07
2023-12-16T02:49:31.574Z,78.17
2023-12-16T02:52:00.320Z,78.01
2023-12-16T02:54:29.656Z,77.97
2023-12-16T02:56:58.055Z,77.76
2023-12-16T02:59:26.326Z,77.85
2023-12-16T03:01:54.726Z,77.63
2023-12-16T03:04:23.002Z,77.74
2023-12-16T03:06:51.712Z,77.37
2023-12-16T03:09:19.992Z,77.32
2023-12-16T03:11:48.986Z,77.20
2023-12-16T03:14:20.133Z,77.10
2023-12-16T03:16:48.552Z,77.12
2023-12-16T03:19:16.833Z,77.15
2023-12-16T03:21:45.090Z,77.34
2023-12-16T03:24:16.340Z,77.50
2023-12-16T03:26:45.050Z,77.51
2023-12-16T03:29:13.784Z,77.85
2023-12-16T03:31:42.154Z,78.06
2023-12-16T03:34:10.569Z,78.19
2023-12-16T03:36:38.772Z,78.37
2023-12-16T03:39:07.274Z,78.40
2023-12-16T03:41:35.473Z,78.46
2023-12-16T03:44:03.750Z,77.89
2023-12-16T03:46:32.048Z,77.85
2023-12-16T03:49:00.417Z,77.52
2023-12-16T03:51:29.138Z,77.39
2023-12-16T03:53:57.297Z,77.04
2023-12-16T03:56:25.660Z,76.62
2023-12-16T03:58:53.910Z,76.56
2023-12-16T04:01:22.446Z,76.49
2023-12-16T04:03:50.772Z,76.67
2023-12-16T04:06:18.998Z,76.78
2023-12-16T04:08:47.191Z,76.82
2023-12-16T04:11:15.456Z,76.72
2023-12-16T04:13:43.634Z,77.35
2023-12-16T04:16:11.995Z,76.88
2023-12-16T04:18:40.355Z,76.93
2023-12-16T04:21:08.830Z,76.78
2023-12-16T04:23:37.003Z,76.71
2023-12-16T04:26:08.325Z,76.84
2023-12-16T04:28:37.872Z,76.66
2023-12-16T04:31:06.230Z,76.03
2023-12-16T04:33:35.042Z,76.30
2023-12-16T04:36:03.443Z,76.61
2023-12-16T04:38:31.676Z,77.15
2023-12-16T04:41:00.195Z,77.76
2023-12-16T04:43:28.408Z,78.21
2023-12-16T04:45:56.684Z,78.29
2023-12-16T04:48:25.149Z,78.93
2023-12-16T04:50:53.398Z,78.53
2023-12-16T04:53:21.739Z,78.47
2023-12-16T04:55:52.758Z,78.99
2023-12-16T04:58:21.717Z,78.74
2023-12-16T05:00:50.138Z,79.45
2023-12-16T05:03:18.595Z,79.74
2023-12-16T05:05:47.034Z,80.24
2023-12-16T05:08:20.937Z,79.87
2023-12-16T05:10:49.305Z,80.00
2023-12-16T05:13:17.742Z,80.12
2023-12-16T05:15:46.168Z,80.38
2023-12-16T05:18:14.588Z,80.25
2023-12-16T05:20:42.968Z,80.43
2023-12-16T05:23:11.304Z,80.90
2023-12-16T05:25:41.320Z,81.25
2023-12-16T05:28:09.658Z,80.85
2023-12-16T05:30:38.201Z,80.49
2023-12-16T05:33:06.992Z,80.33
2023-12-16T05:35:35.406Z,80.79
2023-12-16T05:38:03.657Z,80.69
2023-12-16T05:40:31.939Z,80.96
2023-12-16T05:43:00.442Z,79.90
2023-12-16T05:45:28.722Z,79.53
2023-12-16T05:47:57.208Z,79.38
2023-12-16T05:50:25.489Z,79.53
2023-12-16T05:52:53.763Z,79.42
2023-12-16T05:55:22.069Z,79.23
2023-12-16T05:57:50.465Z,79.59
2023-12-16T06:00:19.912Z,80.07
2023-12-16T06:02:48.283Z,80.47
2023-12-16T06:05:16.857Z,81.16
2023-12-16T06:07:46.643Z,81.36
2023-12-16T06:10:18.525Z,81.17
2023-12-16T06:12:46.950Z,81.37
2023-12-16T06:15:15.422Z,81.19
2023-12-16T06:17:44.038Z,81.00
2023-12-16T06:20:13.075Z,80.31
2023-12-16T06:22:41.523Z,80.44
2023-12-16T06:25:09.966Z,80.94
2023-12-16T06:27:38.742Z,80.90
2023-12-16T06:30:10.114Z,80.52
2023-12-16T06:32:38.468Z,80.50
2023-12-16T06:35:07.459Z,81.09
2023-12-16T06:37:35.725Z,82.00
2023-12-16T06:40:04.937Z,78.99
2023-12-16T06:42:33.200Z,75.55
2023-12-16T06:45:01.480Z,72.31
2023-12-16T06:47:30.276Z,67.60
2023-12-16T06:49:58.611Z,62.82
2023-12-16T06:52:26.968Z,60.63
2023-12-16T06:54:55.238Z,58.80
2023-12-16T06:57:24.013Z,56.02
2023-12-16T06:59:52.321Z,54.20
2023-12-16T07:02:21.125Z,52.65
2023-12-16T07:04:49.686Z,50.39
2023-12-16T07:07:17.946Z,48.28
2023-12-16T07:09:46.315Z,47.57
2023-12-16T07:12:14.690Z,45.41
2023-12-16T07:14:44.409Z,43.90
2023-12-16T07:17:12.740Z,42.12
2023-12-16T07:19:41.119Z,42.01
2023-12-16T07:22:09.579Z,41.09
2023-12-16T07:24:39.228Z,39.53
2023-12-16T07:27:07.468Z,39.39
2023-12-16T07:29:36.297Z,38.48
2023-12-16T07:32:05.498Z,37.48
2023-12-16T07:34:34.009Z,35.94
2023-12-16T07:37:02.345Z,35.64
2023-12-16T07:39:30.552Z,33.99
2023-12-16T07:41:59.012Z,33.88
2023-12-16T07:44:28.423Z,34.44
2023-12-16T07:46:56.698Z,32.19
2023-12-16T07:49:26.609Z,31.48
2023-12-16T07:51:56.311Z,31.27
2023-12-16T07:54:25.954Z,30.34
2023-12-16T07:56:54.690Z,30.84
2023-12-16T07:59:22.943Z,29.07
2023-12-16T08:01:55.705Z,29.43
2023-12-16T08:04:24.722Z,28.77
2023-12-16T08:06:53.148Z,28.56
2023-12-16T08:09:22.583Z,27.37
2023-12-16T08:11:51.535Z,26.95
2023-12-16T08:14:19.757Z,27.49
2023-12-16T08:16:47.946Z,27.70
2023-12-16T08:19:16.595Z,28.09
2023-12-16T08:21:44.851Z,28.62
2023-12-16T08:24:14.994Z,27.48
2023-12-16T08:26:43.801Z,27.12
2023-12-16T08:29:11.994Z,25.83
2023-12-16T08:31:40.467Z,25.29
2023-12-16T08:34:08.796Z,26.01
2023-12-16T08:36:37.227Z,25.44
2023-12-16T08:39:05.776Z,25.11
2023-12-16T08:41:34.089Z,25.00
2023-12-16T08:44:04.561Z,24.37
2023-12-16T08:46:32.941Z,23.86
2023-12-16T08:49:01.413Z,23.63
2023-12-16T08:51:29.801Z,23.22
2023-12-16T08:53:58.117Z,23.23
2023-12-16T08:56:26.323Z,22.99
2023-12-16T08:58:54.931Z,23.44
2023-12-16T09:01:23.418Z,22.81
2023-12-16T09:03:52.010Z,22.26
2023-12-16T09:06:21.651Z,22.43
2023-12-16T09:08:49.795Z,21.81
2023-12-16T09:11:18.200Z,21.87
2023-12-16T09:13:46.495Z,21.06
2023-12-16T09:16:14.999Z,20.79
2023-12-16T09:18:43.717Z,20.63
2023-12-16T09:21:16.277Z,20.04
2023-12-16T09:23:44.663Z,19.25
2023-12-16T09:26:12.917Z,19.10
2023-12-16T09:28:42.175Z,18.90
2023-12-16T09:31:10.824Z,19.20
2023-12-16T09:33:39.188Z,18.61
2023-12-16T09:36:15.385Z,18.15
2023-12-16T09:38:44.353Z,18.16
2023-12-16T09:41:39.298Z,17.17
2023-12-16T09:44:09.795Z,17.23
2023-12-16T09:46:40.046Z,16.01
2023-12-16T09:49:08.296Z,15.73
2023-12-16T09:51:36.659Z,15.69
2023-12-16T09:54:05.032Z,15.31
2023-12-16T09:56:33.965Z,15.34
2023-12-16T09:59:05.119Z,15.15
2023-12-16T10:01:33.424Z,15.23
2023-12-16T10:04:02.820Z,15.61
2023-12-16T10:06:31.158Z,15.24
2023-12-16T10:08:59.402Z,15.51
2023-12-16T10:11:27.916Z,15.05
2023-12-16T10:14:05.040Z,14.93
2023-12-16T10:16:33.816Z,14.77
2023-12-16T10:19:02.296Z,14.69
2023-12-16T10:21:32.858Z,15.13
2023-12-16T10:24:02.781Z,14.62
2023-12-16T10:26:32.795Z,14.43
2023-12-16T10:29:05.694Z,14.21
2023-12-16T10:31:35.998Z,14.17
2023-12-16T10:34:04.432Z,13.68
2023-12-16T10:36:33.139Z,13.98
2023-12-16T10:39:01.515Z,14.90
2023-12-16T10:41:29.769Z,14.68
2023-12-16T10:43:58.144Z,14.71
2023-12-16T10:46:36.439Z,14.30
2023-12-16T10:49:09.946Z,14.01
2023-12-16T10:51:44.927Z,14.13
2023-12-16T10:54:29.223Z,14.20
2023-12-16T10:57:09.514Z,14.04
2023-12-16T10:59:44.925Z,14.15
2023-12-16T11:02:28.386Z,14.24
2023-12-16T11:05:08.051Z,13.54
2023-12-16T11:07:42.854Z,13.98
2023-12-16T11:10:11.643Z,14.05
2023-12-16T11:12:40.797Z,14.17
2023-12-16T11:15:10.833Z,13.81
2023-12-16T11:17:45.005Z,13.32
2023-12-16T11:20:19.048Z,13.52
2023-12-16T11:22:52.622Z,14.28
2023-12-16T11:25:23.325Z,15.32
2023-12-16T11:27:52.847Z,15.33
2023-12-16T11:30:22.944Z,15.44
2023-12-16T11:32:58.731Z,15.93
2023-12-16T11:35:49.277Z,15.71
2023-12-16T11:38:36.071Z,15.58
2023-12-16T11:41:04.505Z,15.40
2023-12-16T11:43:53.690Z,15.42
2023-12-16T11:46:41.037Z,15.57
2023-12-16T11:49:12.413Z,15.97
2023-12-16T11:51:41.938Z,16.61
2023-12-16T11:54:13.086Z,18.01
2023-12-16T11:56:41.835Z,19.93
2023-12-16T11:59:10.437Z,21.49
2023-12-16T12:01:38.922Z,22.73
2023-12-16T12:04:07.765Z,24.17
2023-12-16T12:06:38.230Z,25.73
2023-12-16T12:09:07.092Z,27.15
2023-12-16T12:11:35.783Z,28.09
2023-12-16T12:14:05.299Z,29.25
2023-12-16T12:16:34.467Z,29.56
2023-12-16T12:19:03.525Z,31.25
2023-12-16T12:21:36.442Z,31.94
2023-12-16T12:24:05.251Z,32.84
2023-12-16T12:26:33.555Z,34.12
2023-12-16T12:29:06.062Z,35.57
2023-12-16T12:31:47.991Z,36.47
2023-12-16T12:34:20.951Z,36.01
2023-12-16T12:36:56.172Z,37.15
2023-12-16T12:39:24.455Z,37.97
2023-12-16T12:42:06.182Z,38.95
2023-12-16T12:44:36.840Z,39.81
2023-12-16T12:47:05.522Z,40.01
2023-12-16T12:49:36.006Z,40.10
2023-12-16T12:52:04.903Z,40.69
2023-12-16T12:54:45.776Z,41.15
2023-12-16T12:57:22.251Z,41.39
2023-12-16T13:00:00.286Z,41.80
2023-12-16T13:02:32.624Z,42.29
2023-12-16T13:05:00.952Z,41.98
2023-12-16T13:07:29.344Z,42.68
2023-12-16T13:09:57.662Z,43.42
2023-12-16T13:12:26.856Z,42.97
2023-12-16T13:14:55.344Z,43.49
2023-12-16T13:17:23.758Z,43.78
2023-12-16T13:19:52.165Z,43.77
2023-12-16T13:22:20.404Z,44.09
2023-12-16T13:24:48.607Z,44.88
2023-12-16T13:27:16.870Z,45.42
2023-12-16T13:29:45.033Z,45.66
2023-12-16T13:32:13.293Z,45.37
2023-12-16T13:34:42.856Z,45.26
2023-12-16T13:37:11.522Z,45.78
2023-12-16T13:39:40.402Z,45.97
2023-12-16T13:42:09.048Z,46.18
2023-12-16T13:44:39.341Z,47.44
2023-12-16T13:47:07.639Z,47.10
2023-12-16T13:49:35.993Z,48.03
2023-12-16T13:52:08.379Z,47.57
2023-12-16T13:54:36.742Z,48.57
2023-12-16T13:57:06.183Z,48.73
2023-12-16T13:59:34.531Z,48.85
2023-12-16T14:02:04.153Z,49.41
2023-12-16T14:04:32.383Z,49.65
2023-12-16T14:07:01.010Z,49.79
2023-12-16T14:09:29.348Z,50.35
2023-12-16T14:11:57.645Z,50.71
2023-12-16T14:14:25.833Z,51.50
2023-12-16T14:16:53.973Z,51.96
2023-12-16T14:19:22.412Z,52.50
2023-12-16T14:21:50.707Z,52.90
2023-12-16T14:24:19.023Z,52.72
2023-12-16T14:26:47.351Z,53.30
2023-12-16T14:29:15.575Z,53.15
2023-12-16T14:31:45.400Z,53.81
2023-12-16T14:34:13.784Z,54.43
2023-12-16T14:36:42.557Z,55.39
2023-12-16T14:39:11.592Z,55.44
2023-12-16T14:41:40.072Z,55.74
2023-12-16T14:44:08.781Z,56.65
2023-12-16T14:46:37.066Z,57.29
2023-12-16T14:49:05.485Z,57.19
2023-12-16T14:51:40.282Z,57.42
2023-12-16T14:54:08.631Z,58.22
2023-12-16T14:56:37.099Z,58.54
2023-12-16T14:59:05.533Z,59.41
2023-12-16T15:01:33.706Z,59.17
2023-12-16T15:04:02.078Z,60.02
2023-12-16T15:06:31.469Z,60.06
2023-12-16T15:09:00.401Z,60.29
2023-12-16T15:11:29.259Z,61.33
2023-12-16T15:13:57.497Z,60.86
2023-12-16T15:16:25.774Z,61.32
2023-12-16T15:18:54.267Z,61.31
2023-12-16T15:21:22.590Z,61.27
2023-12-16T15:23:50.922Z,62.13
2023-12-16T15:26:19.216Z,62.87
2023-12-16T15:28:49.308Z,62.92
2023-12-16T15:31:18.002Z,62.89
2023-12-16T15:33:46.367Z,63.33
2023-12-16T15:36:15.233Z,63.96
2023-12-16T15:38:44.059Z,64.37
2023-12-16T15:41:14.699Z,64.51
2023-12-16T15:43:42.873Z,64.38
2023-12-16T15:46:11.137Z,65.20
2023-12-16T15:48:40.642Z,65.34
2023-12-16T15:51:09.278Z,65.70
2023-12-16T15:53:37.663Z,65.45
2023-12-16T15:56:06.658Z,66.04
2023-12-16T15:58:34.980Z,66.21
2023-12-16T16:01:03.321Z,66.29
2023-12-16T16:03:32.384Z,66.03
2023-12-16T16:06:01.240Z,66.68
2023-12-16T16:08:29.720Z,66.95
2023-12-16T16:10:58.067Z,66.78
2023-12-16T16:13:26.406Z,67.44
2023-12-16T16:15:54.972Z,67.65
2023-12-16T16:18:23.436Z,67.44
2023-12-16T16:20:51.970Z,67.25
2023-12-16T16:23:20.410Z,67.72
2023-12-16T16:25:49.519Z,67.94
2023-12-16T16:28:18.510Z,68.02
2023-12-16T16:30:46.786Z,67.56
2023-12-16T16:33:15.414Z,67.65
2023-12-16T16:35:44.105Z,67.32
2023-12-16T16:38:12.444Z,67.50
2023-12-16T16:40:41.330Z,67.19
2023-12-16T16:43:09.695Z,67.39
2023-12-16T16:45:37.991Z,67.02
2023-12-16T16:48:06.504Z,66.89
2023-12-16T16:50:34.922Z,67.06
2023-12-16T16:53:03.361Z,67.08
2023-12-16T16:55:33.097Z,67.07
2023-12-16T16:58:01.309Z,67.17
2023-12-16T17:00:29.598Z,67.14
2023-12-16T17:02:57.985Z,67.35
2023-12-16T17:05:26.367Z,66.88
2023-12-16T17:07:55.158Z,67.63
2023-12-16T17:10:23.372Z,68.18
2023-12-16T17:12:51.605Z,68.09
2023-12-16T17:15:19.827Z,67.93
2023-12-16T17:17:48.214Z,67.41
2023-12-16T17:20:16.567Z,67.19
2023-12-16T17:22:44.861Z,67.56
2023-12-16T17:25:13.393Z,67.45
2023-12-16T17:27:42.027Z,67.24
2023-12-16T17:30:11.127Z,67.46
2023-12-16T17:32:39.484Z,68.04
2023-12-16T17:35:08.205Z,68.50
2023-12-16T17:37:36.801Z,69.40
2023-12-16T17:40:06.530Z,69.50
2023-12-16T17:42:34.941Z,69.88
2023-12-16T17:45:03.241Z,70.40
2023-12-16T17:47:31.489Z,70.89
2023-12-16T17:49:59.697Z,70.83
2023-12-16T17:52:28.619Z,71.36
2023-12-16T17:54:57.156Z,71.53
2023-12-16T17:57:25.448Z,71.40
2023-12-16T17:59:55.342Z,71.06
2023-12-16T18:02:23.562Z,71.03
2023-12-16T18:04:52.174Z,71.28
2023-12-16T18:07:21.169Z,71.59
2023-12-16T18:09:49.402Z,71.60
2023-12-16T18:12:17.971Z,71.36
2023-12-16T18:14:47.111Z,71.73
2023-12-16T18:17:15.316Z,71.66
2023-12-16T18:19:43.503Z,71.62
2023-12-16T18:22:11.771Z,71.73
2023-12-16T18:24:40.942Z,71.94
2023-12-16T18:27:09.391Z,71.72
2023-12-16T18:29:39.487Z,71.86
2023-12-16T18:32:09.111Z,71.95
2023-12-16T18:34:37.454Z,71.67
2023-12-16T18:37:05.815Z,72.33
2023-12-16T18:39:35.763Z,72.66
2023-12-16T18:42:04.580Z,73.00
2023-12-16T18:44:32.940Z,73.08
2023-12-16T18:47:01.336Z,72.87
2023-12-16T18:49:29.723Z,73.05
2023-12-16T18:51:57.949Z,73.32
2023-12-16T18:54:26.187Z,73.39
2023-12-16T18:56:54.460Z,73.34
2023-12-16T18:59:23.732Z,73.64
2023-12-16T19:01:52.041Z,74.20
2023-12-16T19:04:20.417Z,74.50
2023-12-16T19:06:48.739Z,74.76
2023-12-16T19:09:18.360Z,74.41
2023-12-16T19:11:46.979Z,73.91
2023-12-16T19:14:15.240Z,73.69
2023-12-16T19:16:43.471Z,73.75
2023-12-16T19:19:11.850Z,73.95
2023-12-16T19:21:40.178Z,74.01
2023-12-16T19:24:13.452Z,74.14
2023-12-16T19:26:41.810Z,73.69
2023-12-16T19:29:10.151Z,74.21
2023-12-16T19:31:38.299Z,75.23
2023-12-16T19:34:06.593Z,75.47
2023-12-16T19:36:35.044Z,75.90
2023-12-16T19:39:03.703Z,75.53
2023-12-16T19:41:32.104Z,75.37
2023-12-16T19:44:00.364Z,75.62
2023-12-16T19:46:28.972Z,75.74
2023-12-16T19:49:01.115Z,75.92
2023-12-16T19:51:30.215Z,76.49
2023-12-16T19:53:58.514Z,77.25
2023-12-16T19:56:26.820Z,77.47
2023-12-16T19:58:56.035Z,77.42
2023-12-16T20:01:24.885Z,77.32
2023-12-16T20:03:53.268Z,77.24
2023-12-16T20:06:21.641Z,76.79
2023-12-16T20:08:51.005Z,76.54
2023-12-16T20:11:19.307Z,76.18
2023-12-16T20:13:51.979Z,76.41
2023-12-16T20:16:20.987Z,76.66
2023-12-16T20:18:49.572Z,76.39
2023-12-16T20:21:19.096Z,76.05
2023-12-16T20:23:47.652Z,76.39
2023-12-16T20:26:16.035Z,76.19
2023-12-16T20:28:44.185Z,76.23
2023-12-16T20:31:12.576Z,76.91
2023-12-16T20:33:41.542Z,77.70
2023-12-16T20:36:10.326Z,77.70
2023-12-16T20:38:57.304Z,77.19
2023-12-16T20:41:25.627Z,77.10
2023-12-16T20:43:53.852Z,77.45
2023-12-16T20:46:23.991Z,77.88
2023-12-16T20:48:52.590Z,77.48
2023-12-16T20:51:21.108Z,77.38
2023-12-16T20:53:49.325Z,77.57
2023-12-16T20:56:17.662Z,78.12
2023-12-16T20:58:45.900Z,78.11
2023-12-16T21:01:14.819Z,78.69
2023-12-16T21:03:43.792Z,78.35
2023-12-16T21:06:12.170Z,77.88
2023-12-16T21:08:40.529Z,77.87
2023-12-16T21:11:08.872Z,78.17
2023-12-16T21:13:37.180Z,78.01
2023-12-16T21:16:05.807Z,77.97
2023-12-16T21:21:02.594Z,77.67
2023-12-16T21:23:31.295Z,77.31
2023-12-16T21:25:59.542Z,77.00
2023-12-16T21:28:27.744Z,76.87
2023-12-16T21:30:56.013Z,77.12
2023-12-16T21:33:25.294Z,77.17
2023-12-16T21:35:53.877Z,76.72
2023-12-16T21:38:22.234Z,76.96
2023-12-16T21:40:50.429Z,77.35
2023-12-16T21:43:18.594Z,77.59
2023-12-16T21:45:46.776Z,77.15
2023-12-16T21:48:15.202Z,77.43
2023-12-16T21:50:43.735Z,76.94
2023-12-16T21:53:12.743Z,77.65
2023-12-16T21:55:41.309Z,77.03
2023-12-16T21:58:10.155Z,77.38
2023-12-16T22:00:38.479Z,77.56
2023-12-16T22:03:07.772Z,78.01
2023-12-16T22:05:37.378Z,77.84
2023-12-16T22:08:07.367Z,78.30
2023-12-16T22:10:35.926Z,77.68
2023-12-16T22:13:04.454Z,77.58
2023-12-16T22:15:32.787Z,78.53
2023-12-16T22:18:01.005Z,78.71
2023-12-16T22:20:29.362Z,79.40
2023-12-16T22:22:57.576Z,79.91
2023-12-16T22:25:27.641Z,79.81
2023-12-16T22:27:55.759Z,79.75
2023-12-16T22:30:24.006Z,79.97
2023-12-16T22:32:53.126Z,80.84
2023-12-16T22:35:24.112Z,81.08
2023-12-16T22:37:53.182Z,80.10
2023-12-16T22:40:22.416Z,79.66
2023-12-16T22:42:50.713Z,79.31
2023-12-16T22:45:19.478Z,78.88
2023-12-16T22:47:47.952Z,79.24
2023-12-16T22:50:16.553Z,79.10
2023-12-16T22:52:45.136Z,79.11
2023-12-16T22:55:13.484Z,79.32
2023-12-16T22:57:43.583Z,79.24
2023-12-16T23:00:32.014Z,79.38
2023-12-16T23:03:00.691Z,79.74
2023-12-16T23:05:29.495Z,80.20
2023-12-16T23:07:57.772Z,79.94
2023-12-16T23:10:26.690Z,80.68
2023-12-16T23:12:56.903Z,81.22
2023-12-16T23:15:25.329Z,80.85
2023-12-16T23:17:54.063Z,81.45
2023-12-16T23:20:22.622Z,81.70
2023-12-16T23:22:50.807Z,81.38
2023-12-16T23:25:19.156Z,81.68
2023-12-16T23:27:47.520Z,81.35
2023-12-16T23:30:15.924Z,80.77
2023-12-16T23:32:44.562Z,80.40
2023-12-16T23:35:12.954Z,80.33
2023-12-16T23:37:42.975Z,79.61
2023-12-16T23:40:12.009Z,79.73
2023-12-16T23:42:40.195Z,79.66
2023-12-16T23:45:08.838Z,80.04
2023-12-16T23:47:37.426Z,79.93
2023-12-16T23:50:06.499Z,80.05
2023-12-16T23:52:34.781Z,79.76
2023-12-16T23:55:03.194Z,79.00
2023-12-16T23:57:31.541Z,79.13
2023-12-16T23:59:59.807Z,79.03
